Search for airport 
image banner adimage banner adimage banner ad
image banner ad

2O6 - Chowchilla

Located in Chowchilla, United States

ICAO - 2O6, IATA -

Data provided by Airmate  

General information

Coordinates: N37°6'48" W120°14'49"
Elevation is 243 feet MSL.
Magnetic variation is 15° East
View others Airports in California

Operational data

Special qualification required
Current time UTC:
Current local time:
Weather at : KMAE - Madera Muni ( 18 km )
METAR: KMAE 240853Z AUTO 30006KT 10SM CLR 18/13 A2993 RMK AO2 SLP133 T01830128 51010
View NOTAMs / SUP AIP / TFR affecting this airport [VIEW]
Communications frequencies: [VIEW]

Runways:

RWY identifierQFULength (ft)Width (ft)SurfaceLDA (ft)
12134°325360ASPH
30314°325360ASPH

Airport contact information

Address: Chowchilla United States

Satellite view of 2O6